Faa'a International Airport

NTAA · Îles du Vent, French Polynesia

História da METAR NTAA · Faa'a International Airport

Abaixo você vê METARs dos últimos dias. Selecione um ano para navegar pelos METARs mais antigos, a partir do ano 2007.

15 de junho de 2024

Hora Código Clima Temp. Visibilidade Tecto Vento METAR/SPECI
17:00
V
28 °C 10 km+ - 200° 200° 6 kt METAR NTAA 160300Z AUTO 20006KT 9999 FEW043 28/23 Q1014 NOSIG
16:30
V
28 °C 10 km+ 6.600 ft 220° 220° 8 kt METAR NTAA 160230Z AUTO 22008KT 9999 FEW033 BKN066 28/23 Q1014 NOSIG
16:00
V
28 °C 10 km+ 3.100 ft 250° 250° 4 kt METAR NTAA 160200Z AUTO 25004KT 9999 BKN031 BKN041 BKN047 28/23 Q1014 NOSIG
15:30
V
29 °C 10 km+ 4.000 ft 210° 210° 7 kt METAR NTAA 160130Z AUTO 21007KT 9999 FEW034 BKN040 BKN046 29/23 Q1013 NOSIG
15:00
V
29 °C 10 km+ 3.900 ft 210° 210° 7 kt METAR NTAA 160100Z AUTO 21007KT 9999 BKN039 OVC056 29/23 Q1013 TEMPO 05016G26KT
14:30
V
29 °C 10 km+ 4.000 ft 210° 210° 9 kt METAR NTAA 160030Z AUTO 21009KT 9999 BKN040 BKN046 29/22 Q1014 TEMPO 05016G26KT
14:00
V
29 °C 10 km+ 4.200 ft 200° 200° 12 kt METAR NTAA 160000Z AUTO 20012KT 9999 SCT036 BKN042 BKN050 29/23 Q1013 TEMPO 05016G26KT
13:30
V
29 °C 10 km+ 3.900 ft Var Var 4 kt METAR NTAA 152330Z AUTO VRB04KT 9999 SCT033 BKN039 BKN058 29/22 Q1014 TEMPO 05016G26KT
13:00
V
29 °C 10 km+ 3.900 ft 210° 210° 5 kt METAR NTAA 152300Z AUTO 21005KT 9999 BKN039 BKN045 BKN052 29/20 Q1014 TEMPO 05016G26KT
12:30
V
28 °C 10 km+ 3.800 ft 190° 190° 8 kt METAR NTAA 152230Z AUTO 19008KT 9999 FEW019 BKN038 BKN044 28/22 Q1015 TEMPO 05016G26KT
12:00
V
28 °C 10 km+ 4.500 ft 200° 200° 9 kt METAR NTAA 152200Z AUTO 20009KT 9999 SCT036 BKN045 OVC056 28/23 Q1015 TEMPO 05016G26KT
11:30
V
28 °C 10 km+ - 220° 220° 9 kt METAR NTAA 152130Z AUTO 22009KT 9999 SCT038 SCT050 28/23 Q1015 TEMPO 05016G26KT
11:00
V
28 °C 10 km+ - 240° 240° 6 kt METAR NTAA 152100Z AUTO 24006KT 9999 FEW054 28/23 Q1016 TEMPO 05016G26KT
10:30
V
28 °C 10 km+ - 220° 220° 7 kt METAR NTAA 152030Z AUTO 22007KT 9999 FEW052 28/23 Q1016 TEMPO 05016G26KT
10:00
V
28 °C 10 km+ - 220° 220° 6 kt METAR NTAA 152000Z AUTO 22006KT CAVOK 28/22 Q1016 TEMPO 05016G26KT
09:30
V
28 °C 10 km+ - 240° 240° 4 kt METAR NTAA 151930Z AUTO 24004KT CAVOK 28/23 Q1016 TEMPO 05016G26KT
09:00
V
27 °C 10 km+ - 210° 210° 4 kt METAR NTAA 151900Z AUTO 21004KT 180V240 9999 FEW068 27/22 Q1016 NOSIG
08:30
V
27 °C 10 km+ - 200° 200° 4 kt METAR NTAA 151830Z AUTO 20004KT 170V230 CAVOK 27/22 Q1016 NOSIG
08:00
V
27 °C 10 km+ - Var Var 1 kt METAR NTAA 151800Z AUTO VRB01KT CAVOK 27/22 Q1016 NOSIG
07:30
V
26 °C 10 km+ - Var Var 2 kt METAR NTAA 151730Z AUTO VRB02KT CAVOK 26/21 Q1016 NOSIG
07:00
V
24 °C 10 km+ - 140° 140° 3 kt METAR NTAA 151700Z AUTO 14003KT CAVOK 24/21 Q1016 NOSIG
06:30
V
24 °C 10 km+ - 120° 120° 2 kt METAR NTAA 151630Z AUTO 12002KT 9999 FEW068 24/20 Q1016 NOSIG
06:00
V
23 °C 10 km+ - 120° 120° 3 kt METAR NTAA 151600Z AUTO 12003KT 9999 SCT072 SCT082 23/20 Q1015 NOSIG
05:30
V
23 °C 10 km+ - Var Var 2 kt METAR NTAA 151530Z AUTO VRB02KT CAVOK 23/20 Q1015 NOSIG
05:00
V
23 °C 10 km+ - 120° 120° 4 kt METAR NTAA 151500Z AUTO 12004KT CAVOK 23/21 Q1015 NOSIG
04:30
V
23 °C 10 km+ - Var Var 2 kt METAR NTAA 151430Z AUTO VRB02KT CAVOK 23/21 Q1015 NOSIG
04:00
V
23 °C 10 km+ - 100° 100° 4 kt METAR NTAA 151400Z AUTO 10004KT CAVOK 23/20 Q1015 NOSIG
03:30
V
24 °C 10 km+ - 110° 110° 3 kt METAR NTAA 151330Z AUTO 11003KT CAVOK 24/21 Q1015 NOSIG
03:00
V
23 °C 10 km+ - 130° 130° 3 kt METAR NTAA 151300Z AUTO 13003KT CAVOK 23/21 Q1015 NOSIG
02:30
V
23 °C 10 km+ - 100° 100° 4 kt METAR NTAA 151230Z AUTO 10004KT 9999 NCD 23/21 Q1015 NOSIG
02:00
V
24 °C 10 km+ - 100° 100° 4 kt METAR NTAA 151200Z AUTO 10004KT CAVOK 24/21 Q1016 NOSIG
01:30
V
24 °C 10 km+ - 110° 110° 3 kt METAR NTAA 151130Z AUTO 11003KT 080V150 CAVOK 24/22 Q1016 NOSIG
01:00
V
24 °C 10 km+ - 110° 110° 2 kt METAR NTAA 151100Z AUTO 11002KT CAVOK 24/22 Q1016 NOSIG
00:30
V
24 °C 10 km+ - Var Var 1 kt METAR NTAA 151030Z AUTO VRB01KT CAVOK 24/21 Q1016 NOSIG
00:00
V
24 °C 10 km+ - 080° 080° 4 kt METAR NTAA 151000Z AUTO 08004KT 030V110 CAVOK 24/22 Q1016 NOSIG

14 de junho de 2024

Hora Código Clima Temp. Visibilidade Tecto Vento METAR/SPECI
23:30
V
24 °C 10 km+ - 100° 100° 4 kt METAR NTAA 150930Z AUTO 10004KT CAVOK 24/22 Q1016 NOSIG
23:00
V
25 °C 10 km+ - Var Var 2 kt METAR NTAA 150900Z AUTO VRB02KT CAVOK 25/22 Q1016 NOSIG
22:30
V
25 °C 10 km+ - 100° 100° 4 kt METAR NTAA 150830Z AUTO 10004KT CAVOK 25/22 Q1017 NOSIG
22:00
V
25 °C 10 km+ - Var Var 3 kt METAR NTAA 150800Z AUTO VRB03KT CAVOK 25/22 Q1017 NOSIG
21:30
V
25 °C 10 km+ - 200° 200° 3 kt METAR NTAA 150730Z AUTO 20003KT CAVOK 25/22 Q1017 NOSIG
21:00
V
25 °C 10 km+ - 140° 140° 3 kt METAR NTAA 150700Z AUTO 14003KT 080V170 CAVOK 25/22 Q1017 NOSIG
20:30
V
25 °C 10 km+ - 070° 070° 3 kt METAR NTAA 150630Z AUTO 07003KT CAVOK 25/22 Q1017 NOSIG
20:00
V
26 °C 10 km+ - Var Var 2 kt METAR NTAA 150600Z AUTO VRB02KT CAVOK 26/21 Q1016 NOSIG
19:30
V
26 °C 10 km+ - Var Var 2 kt METAR NTAA 150530Z AUTO VRB02KT CAVOK 26/22 Q1016 NOSIG
19:00
V
26 °C 10 km+ - 100° 100° 2 kt METAR NTAA 150500Z AUTO 10002KT CAVOK 26/21 Q1016 NOSIG
18:30
V
27 °C 10 km+ - Var Var 3 kt METAR NTAA 150430Z AUTO VRB03KT CAVOK 27/22 Q1016 NOSIG
18:00
V
28 °C 10 km+ - 330° 330° 6 kt METAR NTAA 150400Z 33006KT 9999 FEW023 28/23 Q1015 NOSIG
17:30
V
28 °C 10 km+ - 320° 320° 6 kt METAR NTAA 150330Z 32006KT 9999 FEW025 28/22 Q1015 NOSIG
17:00
V
29 °C 10 km+ - 290° 290° 5 kt METAR NTAA 150300Z 29005KT 9999 FEW025 29/21 Q1015 NOSIG
16:30
V
29 °C 10 km+ - 270° 270° 7 kt METAR NTAA 150230Z 27007KT 9999 FEW026 29/23 Q1015 NOSIG
16:00
V
29 °C 10 km+ - 260° 260° 7 kt METAR NTAA 150200Z 26007KT 9999 FEW028 29/22 Q1014 NOSIG
15:30
V
29 °C 10 km+ - 240° 240° 5 kt METAR NTAA 150130Z 24005KT 9999 FEW028 29/22 Q1014 NOSIG
15:00
V
29 °C 10 km+ - 240° 240° 6 kt METAR NTAA 150100Z 24006KT 9999 FEW028 29/22 Q1014 NOSIG
14:30
V
29 °C 10 km+ - 220° 220° 8 kt METAR NTAA 150030Z 22008KT 9999 FEW026 29/21 Q1014 NOSIG
14:00
V
29 °C 10 km+ - 230° 230° 9 kt METAR NTAA 150000Z 23009KT 9999 FEW026 29/22 Q1014 NOSIG
13:30
V
29 °C 10 km+ - 240° 240° 6 kt METAR NTAA 142330Z 24006KT 9999 FEW025 29/22 Q1014 NOSIG
13:00
V
29 °C 10 km+ - 260° 260° 5 kt METAR NTAA 142300Z 26005KT 9999 FEW025 SCT040 29/23 Q1015 NOSIG
12:30
V
29 °C 10 km+ - 250° 250° 4 kt METAR NTAA 142230Z 25004KT 9999 FEW025 29/23 Q1015 NOSIG
12:00
V
28 °C 10 km+ - 220° 220° 6 kt METAR NTAA 142200Z 22006KT 190V250 9999 FEW025 28/22 Q1016 NOSIG
11:30
V
28 °C 10 km+ - 220° 220° 7 kt METAR NTAA 142130Z 22007KT 9999 FEW023 28/23 Q1016 NOSIG
11:00
V
28 °C 10 km+ 6.000 ft Var Var 2 kt METAR NTAA 142100Z VRB02KT 9999 VCSH FEW023 BKN060 28/23 Q1016 NOSIG
10:30
V
28 °C 10 km+ - 230° 230° 4 kt METAR NTAA 142030Z 23004KT 9999 VCSH FEW023 28/23 Q1016 NOSIG
10:00
V
28 °C 10 km+ - 220° 220° 4 kt METAR NTAA 142000Z 22004KT 9999 VCSH FEW023 28/23 Q1016 NOSIG
09:30
V
28 °C 10 km+ - 230° 230° 4 kt METAR NTAA 141930Z 23004KT 9999 FEW025 28/23 Q1017 NOSIG
09:00
V
27 °C 10 km+ - 210° 210° 5 kt METAR NTAA 141900Z 21005KT 9999 FEW025 27/22 Q1017 NOSIG
08:30
V
28 °C 10 km+ - Var Var 2 kt METAR NTAA 141830Z VRB02KT 9999 FEW025 28/22 Q1016 NOSIG
08:00
V
26 °C 10 km+ - Var Var 2 kt METAR NTAA 141800Z VRB02KT 9999 FEW025 26/21 Q1016 NOSIG
07:30
V
24 °C 10 km+ - Var Var 2 kt METAR NTAA 141730Z VRB02KT 9999 FEW023 24/21 Q1016 NOSIG
07:00
V
23 °C 10 km+ - 100° 100° 3 kt METAR NTAA 141700Z 10003KT 9999 FEW023 23/20 Q1015 NOSIG
06:30
V
23 °C 10 km+ - 080° 080° 4 kt METAR NTAA 141630Z 08004KT 9999 FEW023 23/20 Q1015 NOSIG
06:00
V
23 °C 10 km+ - Var Var 3 kt METAR NTAA 141600Z VRB03KT 9999 FEW023 23/20 Q1015 NOSIG
05:30
V
23 °C 10 km+ - 140° 140° 4 kt METAR NTAA 141530Z AUTO 14004KT CAVOK 23/20 Q1014 NOSIG
05:00
V
23 °C 10 km+ - Var Var 2 kt METAR NTAA 141500Z AUTO VRB02KT CAVOK 23/20 Q1014 NOSIG
04:30
V
24 °C 10 km+ - 050° 050° 6 kt METAR NTAA 141430Z AUTO 05006KT 9999 FEW054 24/20 Q1014 NOSIG
04:00
V
23 °C 10 km+ - Var Var 3 kt METAR NTAA 141400Z AUTO VRB03KT 9999 SCT056 23/20 Q1014 NOSIG
03:30
V
23 °C 10 km+ - 140° 140° 4 kt METAR NTAA 141330Z AUTO 14004KT 100V170 9999 FEW062 23/20 Q1014 NOSIG
03:00
V
23 °C 10 km+ - Var Var 1 kt METAR NTAA 141300Z AUTO VRB01KT 9999 FEW062 23/20 Q1014 NOSIG
02:30
V
24 °C 10 km+ - 130° 130° 4 kt METAR NTAA 141230Z AUTO 13004KT 9999 FEW060 24/20 Q1014 NOSIG
02:00
V
24 °C 10 km+ - 160° 160° 7 kt METAR NTAA 141200Z AUTO 16007KT CAVOK 24/20 Q1014 TEMPO 05015G25KT
01:30
V
23 °C 10 km+ - 090° 090° 4 kt METAR NTAA 141130Z AUTO 09004KT 050V130 CAVOK 23/20 Q1014 TEMPO 05015G25KT
01:00
V
23 °C 10 km+ - Var Var 3 kt METAR NTAA 141100Z AUTO VRB03KT CAVOK 23/20 Q1014 TEMPO 05015G25KT
00:30
V
24 °C 10 km+ - Var Var 2 kt METAR NTAA 141030Z AUTO VRB02KT 9999 FEW062 24/21 Q1015 TEMPO 05015G25KT
00:00
V
24 °C 10 km+ - 070° 070° 3 kt METAR NTAA 141000Z AUTO 07003KT 030V150 9999 SCT056 SCT066 24/21 Q1015 TEMPO 05015G25KT

13 de junho de 2024

Hora Código Clima Temp. Visibilidade Tecto Vento METAR/SPECI
23:30
V
24 °C 10 km+ - Var Var 3 kt METAR NTAA 140930Z AUTO VRB03KT 9999 FEW054 24/21 Q1015 TEMPO 05015G25KT
23:00
V
25 °C 10 km+ - 060° 060° 5 kt METAR NTAA 140900Z AUTO 06005KT 010V100 9999 FEW028 25/21 Q1015 TEMPO 05015G25KT
22:30
V
24 °C 10 km+ - 160° 160° 5 kt METAR NTAA 140830Z AUTO 16005KT 9999 FEW080 24/22 Q1016 TEMPO 05015G25KT
22:00
V
25 °C 10 km+ - 150° 150° 3 kt METAR NTAA 140800Z AUTO 15003KT CAVOK 25/21 Q1016 TEMPO 05015G25KT
21:30
V
25 °C 10 km+ - 170° 170° 4 kt METAR NTAA 140730Z AUTO 17004KT 9999 FEW062 25/22 Q1016 TEMPO 05015G25KT
21:00
V
26 °C 10 km+ 6.000 ft 210° 210° 5 kt METAR NTAA 140700Z AUTO 21005KT 9999 BKN060 OVC070 26/22 Q1016 TEMPO 05015G25KT
20:30
V
25 °C 10 km+ 5.800 ft 200° 200° 7 kt METAR NTAA 140630Z AUTO 20007KT 140V220 9999 BKN058 BKN072 OVC086 25/21 Q1016 TEMPO 05015G25KT
20:00
V
25 °C 10 km+ 5.800 ft 200° 200° 6 kt METAR NTAA 140600Z AUTO 20006KT 9999 BKN058 BKN070 BKN096 25/22 Q1016 TEMPO 05015G25KT
19:30
V
25 °C 10 km+ 5.400 ft 200° 200° 5 kt METAR NTAA 140530Z AUTO 20005KT 9999 BKN054 BKN074 OVC086 25/22 Q1016 TEMPO 05016G26KT
19:00
V
25 °C 10 km+ 5.400 ft 070° 070° 4 kt METAR NTAA 140500Z AUTO 07004KT 040V100 9999 BKN054 OVC068 25/21 Q1016 TEMPO 05016G26KT 3000 SHRA BKN016TCU OVC040
18:30
V
24 °C 10 km+ 5.000 ft 070° 070° 8 kt METAR NTAA 140430Z AUTO 07008KT 040V100 9999 FEW018 BKN050 BKN070 24/21 Q1016 TEMPO 05016G26KT 3000 SHRA BKN016TCU OVC040
18:00
M
24 °C 10 km+ 3.000 ft 060° 060° 12 kt METAR NTAA 140400Z AUTO 06012KT 9999 FEW014 BKN030 BKN058 24/22 Q1015 TEMPO 05016G26KT 3000 SHRA BKN016TCU OVC040
17:30
V
25 °C 10 km+ 7.400 ft Var Var 3 kt METAR NTAA 140330Z AUTO VRB03KT 9999 FEW058 BKN074 OVC086 25/22 Q1015 TEMPO 05016G26KT 3000 SHRA BKN016TCU OVC040
17:00
V
25 °C 10 km+ 5.200 ft 030° 030° 4 kt METAR NTAA 140300Z AUTO 03004KT 360V070 9999 FEW026 SCT035 BKN052 25/22 Q1015 TEMPO 05016G26KT 3000 SHRA BKN016TCU OVC040
16:30
M
25 °C 10 km+ 2.600 ft Var Var 5 kt METAR NTAA 140230Z AUTO VRB05KT 9999 FEW017 BKN026 BKN036 25/23 Q1015 TEMPO 05016G26KT 3000 SHRA BKN016TCU OVC040
16:00
V
25 °C 10 km+ 6.200 ft 180° 180° 9 kt METAR NTAA 140200Z AUTO 18009KT 9999 -RA FEW029 SCT049 BKN062 25/23 Q1015 TEMPO 05016G26KT 3000 SHRA BKN016TCU OVC040
15:30
V
26 °C 10 km+ 4.500 ft 200° 200° 10 kt METAR NTAA 140130Z AUTO 20010KT 9999 FEW024 BKN045 BKN082 26/23 Q1014 TEMPO 05016G26KT 3000 SHRA BKN016TCU OVC040
15:00
V
26 °C 10 km+ 5.000 ft 180° 180° 8 kt METAR NTAA 140100Z AUTO 18008KT 9999 FEW020 SCT034 BKN050 26/22 Q1015 TEMPO 05016G26KT 3000 SHRA BKN016TCU OVC040
14:30
V
26 °C 10 km+ 4.300 ft 190° 190° 9 kt METAR NTAA 140030Z AUTO 19009KT 9999 SCT030 BKN043 BKN054 26/22 Q1014 TEMPO 05016G26KT 3000 SHRA BKN016TCU OVC040
14:00
V
26 °C 10 km+ 5.200 ft 200° 200° 9 kt METAR NTAA 140000Z AUTO 20009KT 9999 SCT029 BKN052 BKN100 26/22 Q1015 TEMPO 05016G26KT 3000 SHRA BKN016TCU OVC040
13:30
V
26 °C 10 km+ 4.800 ft 220° 220° 4 kt METAR NTAA 132330Z AUTO 22004KT 9999 FEW028 BKN048 BKN064 26/23 Q1015 TEMPO 05016G26KT 3000 SHRA BKN016TCU OVC040
13:00
V
26 °C 10 km+ 8.400 ft 250° 250° 3 kt METAR NTAA 132300Z AUTO 25003KT 210V280 9999 FEW039 SCT074 BKN084 26/23 Q1015
12:30
V
26 °C 10 km+ 7.200 ft 310° 310° 4 kt METAR NTAA 132230Z AUTO 31004KT 270V350 9999 FEW029/// SCT048/// BKN072/// ///TCU 26/22 Q1015
12:00
V
25 °C 9 km 3.700 ft 340° 340° 3 kt METAR NTAA 132200Z AUTO 34003KT 250V030 9000 -RA FEW029 BKN037 OVC048 25/23 Q1016
11:30
I
25 °C 3,8 km 2.700 ft Var Var 3 kt METAR NTAA 132130Z AUTO VRB03KT 3800 -RA BR FEW020 BKN027 BKN033 25/23 Q1016
11:00
I
26 °C 4,2 km 4.900 ft 190° 190° 7 kt METAR NTAA 132100Z AUTO 19007KT 4200 -RA BR FEW025/// OVC049/// ///TCU 26/23 Q1017
10:30
M
26 °C 10 km+ 2.500 ft 250° 250° 4 kt METAR NTAA 132030Z AUTO 25004KT 220V290 9999 BKN025 BKN034 BKN041 26/22 Q1017
10:00
V
27 °C 10 km+ 6.200 ft 220° 220° 6 kt METAR NTAA 132000Z AUTO 22006KT 190V260 9999 FEW029 SCT048 OVC062 27/22 Q1017
09:30
V
26 °C 10 km+ 5.800 ft 200° 200° 9 kt METAR NTAA 131930Z AUTO 20009KT 9999 FEW037 BKN058 BKN072 26/22 Q1017
09:00
V
26 °C 10 km+ 5.400 ft 220° 220° 3 kt METAR NTAA 131900Z AUTO 22003KT 180V250 9999 -RA FEW043 BKN054 BKN066 26/22 Q1017 NOSIG
08:30
V
26 °C 10 km+ 8.200 ft Var Var 2 kt METAR NTAA 131830Z AUTO VRB02KT 9999 FEW028 OVC082 26/21 Q1017 NOSIG
08:00
V
26 °C 10 km+ 7.800 ft Var Var 2 kt METAR NTAA 131800Z AUTO VRB02KT 9999 FEW027 SCT064 OVC078 26/21 Q1016 NOSIG
07:30
V
25 °C 10 km+ 7.400 ft Var Var 3 kt METAR NTAA 131730Z AUTO VRB03KT 9999 FEW056 BKN074 OVC088 25/21 Q1016 NOSIG
07:00
V
24 °C 10 km+ 8.800 ft 110° 110° 3 kt METAR NTAA 131700Z AUTO 11003KT 9999 FEW072 OVC088 24/21 Q1015 NOSIG
06:00
V
24 °C 10 km+ - 170° 170° 4 kt METAR NTAA 131600Z 17004KT 9999 FEW023 24/20 Q1015 NOSIG
05:30
V
23 °C 10 km+ - 160° 160° 4 kt METAR NTAA 131530Z 16004KT 9999 FEW023 23/20 Q1015 NOSIG
05:00
V
24 °C 10 km+ - 360° 360° 0 kt METAR NTAA 131500Z 00000KT 9999 FEW023 24/20 Q1015 NOSIG
04:30
V
24 °C 10 km+ - Var Var 3 kt METAR NTAA 131430Z VRB03KT 9999 FEW023 SCT053 24/20 Q1015 NOSIG
04:00
V
24 °C 10 km+ - 070° 070° 5 kt METAR NTAA 131400Z 07005KT 9999 FEW023 SCT040 24/20 Q1015 NOSIG
03:30
V
24 °C 10 km+ 5.300 ft 100° 100° 3 kt METAR NTAA 131330Z 10003KT 9999 FEW023 BKN053 24/20 Q1014 NOSIG
03:00
V
23 °C 10 km+ 5.000 ft 090° 090° 5 kt METAR NTAA 131300Z 09005KT 9999 FEW023 BKN050 23/20 Q1014 NOSIG
02:30
V
23 °C 10 km+ 5.000 ft 080° 080° 5 kt METAR NTAA 131230Z 08005KT 9999 FEW023 BKN050 23/20 Q1015 NOSIG
02:00
V
23 °C 10 km+ - 080° 080° 4 kt METAR NTAA 131200Z 08004KT 9999 FEW023 SCT053 23/20 Q1015 NOSIG
01:30
V
23 °C 10 km+ - 080° 080° 4 kt METAR NTAA 131130Z 08004KT 9999 FEW023 SCT060 23/20 Q1015 NOSIG
01:00
V
23 °C 10 km+ - Var Var 3 kt METAR NTAA 131100Z AUTO VRB03KT 9999 FEW054 SCT066 23/19 Q1015 NOSIG
00:30
V
23 °C 10 km+ - 090° 090° 3 kt METAR NTAA 131030Z AUTO 09003KT 9999 FEW054 23/19 Q1015 NOSIG
00:00
V
24 °C 10 km+ 5.800 ft Var Var 2 kt METAR NTAA 131000Z AUTO VRB02KT 9999 FEW047 BKN058 24/19 Q1016 NOSIG

12 de junho de 2024

Hora Código Clima Temp. Visibilidade Tecto Vento METAR/SPECI
23:30
V
24 °C 10 km+ - 180° 180° 3 kt METAR NTAA 130930Z AUTO 18003KT 9999 SCT056 24/19 Q1016 NOSIG
23:00
V
24 °C 10 km+ - Var Var 1 kt METAR NTAA 130900Z AUTO VRB01KT 9999 FEW049 SCT058 24/20 Q1016 NOSIG
22:30
V
24 °C 10 km+ - 150° 150° 5 kt METAR NTAA 130830Z AUTO 15005KT 9999 FEW060 24/20 Q1016 NOSIG
22:00
V
24 °C 10 km+ - Var Var 2 kt METAR NTAA 130800Z VRB02KT 9999 FEW023 24/20 Q1016 NOSIG
21:30
V
24 °C 10 km+ - 150° 150° 3 kt METAR NTAA 130730Z 15003KT 9999 FEW023 24/20 Q1016 NOSIG
21:00
V
25 °C 10 km+ - 110° 110° 3 kt METAR NTAA 130700Z 11003KT 9999 FEW020 25/20 Q1016 NOSIG
20:30
V
25 °C 10 km+ - 110° 110° 4 kt METAR NTAA 130630Z 11004KT 070V130 9999 FEW020 SCT053 25/20 Q1016 NOSIG
20:00
V
25 °C 10 km+ - 070° 070° 5 kt METAR NTAA 130600Z 07005KT 040V110 9999 FEW020 SCT053 25/20 Q1016 NOSIG
Relatar uma mudança